sensor_id;sensor_type;location;lat;lon;timestamp;temperature;humidity
10905;DHT22;5505;51.450;9.254;2022-09-30T00:00:23;4.40;99.90
10905;DHT22;5505;51.450;9.254;2022-09-30T00:03:10;5.80;99.90
10905;DHT22;5505;51.450;9.254;2022-09-30T00:05:57;4.30;99.90
10905;DHT22;5505;51.450;9.254;2022-09-30T00:08:46;4.30;99.90
10905;DHT22;5505;51.450;9.254;2022-09-30T00:11:35;4.20;99.90
10905;DHT22;5505;51.450;9.254;2022-09-30T00:14:24;4.10;99.90
10905;DHT22;5505;51.450;9.254;2022-09-30T00:17:11;4.10;99.90
10905;DHT22;5505;51.450;9.254;2022-09-30T00:19:58;4.10;99.90
10905;DHT22;5505;51.450;9.254;2022-09-30T00:22:45;4.20;99.90
10905;DHT22;5505;51.450;9.254;2022-09-30T00:25:33;4.20;99.90
10905;DHT22;5505;51.450;9.254;2022-09-30T00:28:21;4.10;99.90
10905;DHT22;5505;51.450;9.254;2022-09-30T00:31:11;4.10;99.90
10905;DHT22;5505;51.450;9.254;2022-09-30T00:33:58;4.10;99.90
10905;DHT22;5505;51.450;9.254;2022-09-30T00:37:11;4.10;99.90
10905;DHT22;5505;51.450;9.254;2022-09-30T00:40:00;4.10;99.90
10905;DHT22;5505;51.450;9.254;2022-09-30T00:42:48;4.00;99.90
10905;DHT22;5505;51.450;9.254;2022-09-30T00:45:35;4.00;99.90
10905;DHT22;5505;51.450;9.254;2022-09-30T00:48:25;4.00;99.90
10905;DHT22;5505;51.450;9.254;2022-09-30T00:51:17;3.90;99.90
10905;DHT22;5505;51.450;9.254;2022-09-30T00:54:06;7.20;99.90
10905;DHT22;5505;51.450;9.254;2022-09-30T00:57:03;4.00;99.90
10905;DHT22;5505;51.450;9.254;2022-09-30T00:59:52;4.00;99.90
10905;DHT22;5505;51.450;9.254;2022-09-30T01:02:39;3.90;99.90
10905;DHT22;5505;51.450;9.254;2022-09-30T01:05:26;3.80;99.90
10905;DHT22;5505;51.450;9.254;2022-09-30T01:08:15;3.80;99.90
10905;DHT22;5505;51.450;9.254;2022-09-30T01:11:03;3.80;99.90
10905;DHT22;5505;51.450;9.254;2022-09-30T01:13:53;3.70;99.90
10905;DHT22;5505;51.450;9.254;2022-09-30T01:16:52;3.70;99.90
10905;DHT22;5505;51.450;9.254;2022-09-30T01:20:25;3.70;99.90
10905;DHT22;5505;51.450;9.254;2022-09-30T01:26:00;3.70;99.90
10905;DHT22;5505;51.450;9.254;2022-09-30T01:29:19;4.50;99.90
10905;DHT22;5505;51.450;9.254;2022-09-30T01:32:18;3.50;99.90
10905;DHT22;5505;51.450;9.254;2022-09-30T01:35:15;3.40;99.90
10905;DHT22;5505;51.450;9.254;2022-09-30T01:38:11;3.40;99.90
10905;DHT22;5505;51.450;9.254;2022-09-30T01:41:04;5.10;99.90
10905;DHT22;5505;51.450;9.254;2022-09-30T01:43:56;3.40;99.90
10905;DHT22;5505;51.450;9.254;2022-09-30T01:46:53;3.30;99.90
10905;DHT22;5505;51.450;9.254;2022-09-30T01:49:47;3.30;99.90
10905;DHT22;5505;51.450;9.254;2022-09-30T01:52:42;3.30;99.90
10905;DHT22;5505;51.450;9.254;2022-09-30T01:55:34;3.30;99.90
10905;DHT22;5505;51.450;9.254;2022-09-30T01:58:30;3.40;99.90
10905;DHT22;5505;51.450;9.254;2022-09-30T02:01:23;3.40;99.90
10905;DHT22;5505;51.450;9.254;2022-09-30T02:04:16;3.30;99.90
10905;DHT22;5505;51.450;9.254;2022-09-30T02:07:09;3.30;99.90
10905;DHT22;5505;51.450;9.254;2022-09-30T02:10:02;3.30;99.90
10905;DHT22;5505;51.450;9.254;2022-09-30T02:12:53;3.30;99.90
10905;DHT22;5505;51.450;9.254;2022-09-30T02:15:46;3.30;99.90
10905;DHT22;5505;51.450;9.254;2022-09-30T02:18:49;3.30;99.90
10905;DHT22;5505;51.450;9.254;2022-09-30T02:21:40;3.30;99.90
10905;DHT22;5505;51.450;9.254;2022-09-30T02:24:33;3.20;99.90
10905;DHT22;5505;51.450;9.254;2022-09-30T02:27:27;3.20;99.90
10905;DHT22;5505;51.450;9.254;2022-09-30T02:30:15;3.20;99.90
10905;DHT22;5505;51.450;9.254;2022-09-30T02:33:06;3.10;99.90
10905;DHT22;5505;51.450;9.254;2022-09-30T02:35:57;3.10;99.90
10905;DHT22;5505;51.450;9.254;2022-09-30T02:38:49;3.10;99.90
10905;DHT22;5505;51.450;9.254;2022-09-30T02:41:46;3.10;99.90
10905;DHT22;5505;51.450;9.254;2022-09-30T02:44:35;3.10;99.90
10905;DHT22;5505;51.450;9.254;2022-09-30T02:47:27;3.00;99.90
10905;DHT22;5505;51.450;9.254;2022-09-30T02:50:21;3.00;99.90
10905;DHT22;5505;51.450;9.254;2022-09-30T02:53:17;3.00;99.90
10905;DHT22;5505;51.450;9.254;2022-09-30T02:56:16;2.90;99.90
10905;DHT22;5505;51.450;9.254;2022-09-30T02:59:08;2.90;99.90
10905;DHT22;5505;51.450;9.254;2022-09-30T03:01:56;3.00;99.90
10905;DHT22;5505;51.450;9.254;2022-09-30T03:04:44;3.00;99.90
10905;DHT22;5505;51.450;9.254;2022-09-30T03:07:33;3.00;99.90
10905;DHT22;5505;51.450;9.254;2022-09-30T03:10:20;3.00;99.90
10905;DHT22;5505;51.450;9.254;2022-09-30T03:13:20;2.90;99.90
10905;DHT22;5505;51.450;9.254;2022-09-30T03:16:19;2.90;99.90
10905;DHT22;5505;51.450;9.254;2022-09-30T03:19:24;2.90;99.90
10905;DHT22;5505;51.450;9.254;2022-09-30T03:22:31;2.90;99.90
10905;DHT22;5505;51.450;9.254;2022-09-30T03:25:29;2.80;99.90
10905;DHT22;5505;51.450;9.254;2022-09-30T03:28:23;2.90;99.90
10905;DHT22;5505;51.450;9.254;2022-09-30T03:31:16;2.90;99.90
10905;DHT22;5505;51.450;9.254;2022-09-30T03:34:14;2.90;99.90
10905;DHT22;5505;51.450;9.254;2022-09-30T03:37:12;2.80;99.90
10905;DHT22;5505;51.450;9.254;2022-09-30T03:40:05;2.80;99.90
10905;DHT22;5505;51.450;9.254;2022-09-30T03:42:59;2.80;99.90
10905;DHT22;5505;51.450;9.254;2022-09-30T03:45:53;2.70;99.90
10905;DHT22;5505;51.450;9.254;2022-09-30T03:48:44;2.70;99.90
10905;DHT22;5505;51.450;9.254;2022-09-30T03:51:35;2.70;99.90
10905;DHT22;5505;51.450;9.254;2022-09-30T03:54:23;2.70;99.90
10905;DHT22;5505;51.450;9.254;2022-09-30T03:57:10;2.70;99.90
10905;DHT22;5505;51.450;9.254;2022-09-30T03:59:58;2.70;99.90
10905;DHT22;5505;51.450;9.254;2022-09-30T04:02:46;2.60;99.90
10905;DHT22;5505;51.450;9.254;2022-09-30T04:05:35;0.10;99.90
10905;DHT22;5505;51.450;9.254;2022-09-30T04:08:22;2.50;99.90
10905;DHT22;5505;51.450;9.254;2022-09-30T04:11:09;2.40;99.90
10905;DHT22;5505;51.450;9.254;2022-09-30T04:13:57;2.20;99.90
10905;DHT22;5505;51.450;9.254;2022-09-30T04:16:46;2.10;99.90
10905;DHT22;5505;51.450;9.254;2022-09-30T04:19:33;2.00;99.90
10905;DHT22;5505;51.450;9.254;2022-09-30T04:22:26;1.90;99.90
10905;DHT22;5505;51.450;9.254;2022-09-30T04:25:13;1.90;99.90
10905;DHT22;5505;51.450;9.254;2022-09-30T04:28:01;2.40;99.90
10905;DHT22;5505;51.450;9.254;2022-09-30T04:30:48;2.00;99.90
10905;DHT22;5505;51.450;9.254;2022-09-30T04:33:35;2.00;99.90
10905;DHT22;5505;51.450;9.254;2022-09-30T04:36:22;2.10;99.90
10905;DHT22;5505;51.450;9.254;2022-09-30T04:39:11;2.10;99.90
10905;DHT22;5505;51.450;9.254;2022-09-30T04:41:58;2.10;99.90
10905;DHT22;5505;51.450;9.254;2022-09-30T04:44:46;2.20;99.90
10905;DHT22;5505;51.450;9.254;2022-09-30T04:47:33;2.20;99.90
10905;DHT22;5505;51.450;9.254;2022-09-30T04:50:21;2.30;99.90
10905;DHT22;5505;51.450;9.254;2022-09-30T04:53:09;2.30;99.90
10905;DHT22;5505;51.450;9.254;2022-09-30T04:55:59;2.40;99.90
10905;DHT22;5505;51.450;9.254;2022-09-30T04:58:47;2.40;99.90
10905;DHT22;5505;51.450;9.254;2022-09-30T05:01:34;2.40;99.90
10905;DHT22;5505;51.450;9.254;2022-09-30T05:04:21;2.40;99.90
10905;DHT22;5505;51.450;9.254;2022-09-30T05:07:08;2.40;99.90
10905;DHT22;5505;51.450;9.254;2022-09-30T05:09:55;2.40;99.90
10905;DHT22;5505;51.450;9.254;2022-09-30T05:12:44;2.50;99.90
10905;DHT22;5505;51.450;9.254;2022-09-30T05:15:33;2.50;99.90
10905;DHT22;5505;51.450;9.254;2022-09-30T05:18:20;2.50;99.90
10905;DHT22;5505;51.450;9.254;2022-09-30T05:21:09;2.50;99.90
10905;DHT22;5505;51.450;9.254;2022-09-30T05:23:56;2.50;99.90
10905;DHT22;5505;51.450;9.254;2022-09-30T05:26:43;2.50;99.90
10905;DHT22;5505;51.450;9.254;2022-09-30T05:29:32;2.40;99.90
10905;DHT22;5505;51.450;9.254;2022-09-30T05:32:19;2.30;99.90
10905;DHT22;5505;51.450;9.254;2022-09-30T05:35:07;2.70;99.90
10905;DHT22;5505;51.450;9.254;2022-09-30T05:37:54;2.20;99.90
10905;DHT22;5505;51.450;9.254;2022-09-30T05:40:41;2.20;99.90
10905;DHT22;5505;51.450;9.254;2022-09-30T05:43:28;2.10;99.90
10905;DHT22;5505;51.450;9.254;2022-09-30T05:46:19;2.10;99.90
10905;DHT22;5505;51.450;9.254;2022-09-30T05:49:06;2.10;99.90
10905;DHT22;5505;51.450;9.254;2022-09-30T05:51:53;3.00;99.90
10905;DHT22;5505;51.450;9.254;2022-09-30T05:54:40;2.20;99.90
10905;DHT22;5505;51.450;9.254;2022-09-30T05:57:27;2.20;99.90
10905;DHT22;5505;51.450;9.254;2022-09-30T06:00:15;2.30;99.90
10905;DHT22;5505;51.450;9.254;2022-09-30T06:03:04;2.30;99.90
10905;DHT22;5505;51.450;9.254;2022-09-30T06:05:54;2.30;99.90
10905;DHT22;5505;51.450;9.254;2022-09-30T06:08:42;2.20;99.90
10905;DHT22;5505;51.450;9.254;2022-09-30T06:11:29;2.30;99.90
10905;DHT22;5505;51.450;9.254;2022-09-30T06:14:17;2.30;99.90
10905;DHT22;5505;51.450;9.254;2022-09-30T06:17:05;2.30;99.90
10905;DHT22;5505;51.450;9.254;2022-09-30T06:19:53;2.30;99.90
10905;DHT22;5505;51.450;9.254;2022-09-30T06:22:41;2.90;99.90
10905;DHT22;5505;51.450;9.254;2022-09-30T06:25:29;2.30;99.90
10905;DHT22;5505;51.450;9.254;2022-09-30T06:28:16;2.40;99.90
10905;DHT22;5505;51.450;9.254;2022-09-30T06:31:05;3.90;99.90
10905;DHT22;5505;51.450;9.254;2022-09-30T06:33:52;2.30;99.90
10905;DHT22;5505;51.450;9.254;2022-09-30T06:36:41;2.30;99.90
10905;DHT22;5505;51.450;9.254;2022-09-30T06:39:28;2.30;99.90
10905;DHT22;5505;51.450;9.254;2022-09-30T06:42:16;2.40;99.90
10905;DHT22;5505;51.450;9.254;2022-09-30T06:45:04;2.40;99.90
10905;DHT22;5505;51.450;9.254;2022-09-30T06:47:55;2.50;99.90
10905;DHT22;5505;51.450;9.254;2022-09-30T06:50:43;2.50;99.90
10905;DHT22;5505;51.450;9.254;2022-09-30T06:53:32;2.50;99.90
10905;DHT22;5505;51.450;9.254;2022-09-30T06:56:20;2.50;99.90
10905;DHT22;5505;51.450;9.254;2022-09-30T06:59:07;2.50;99.90
10905;DHT22;5505;51.450;9.254;2022-09-30T07:01:54;2.50;99.90
10905;DHT22;5505;51.450;9.254;2022-09-30T07:04:42;2.60;99.90
10905;DHT22;5505;51.450;9.254;2022-09-30T07:07:29;3.80;99.90
10905;DHT22;5505;51.450;9.254;2022-09-30T07:10:20;2.70;99.90
10905;DHT22;5505;51.450;9.254;2022-09-30T07:13:07;2.70;99.90
10905;DHT22;5505;51.450;9.254;2022-09-30T07:15:55;2.90;99.90
10905;DHT22;5505;51.450;9.254;2022-09-30T07:18:43;3.00;99.90
10905;DHT22;5505;51.450;9.254;2022-09-30T07:21:30;3.10;99.90
10905;DHT22;5505;51.450;9.254;2022-09-30T07:24:18;3.10;99.90
10905;DHT22;5505;51.450;9.254;2022-09-30T07:27:06;3.20;99.90
10905;DHT22;5505;51.450;9.254;2022-09-30T07:29:53;3.30;99.90
10905;DHT22;5505;51.450;9.254;2022-09-30T07:32:40;3.40;99.90
10905;DHT22;5505;51.450;9.254;2022-09-30T07:35:28;3.30;99.90
10905;DHT22;5505;51.450;9.254;2022-09-30T07:38:15;3.40;99.90
10905;DHT22;5505;51.450;9.254;2022-09-30T07:41:04;3.50;99.90
10905;DHT22;5505;51.450;9.254;2022-09-30T07:43:55;3.60;99.90
10905;DHT22;5505;51.450;9.254;2022-09-30T07:46:43;3.70;99.90
10905;DHT22;5505;51.450;9.254;2022-09-30T07:49:30;3.70;99.90
10905;DHT22;5505;51.450;9.254;2022-09-30T07:52:17;3.80;99.90
10905;DHT22;5505;51.450;9.254;2022-09-30T07:55:05;3.80;99.90
10905;DHT22;5505;51.450;9.254;2022-09-30T07:57:52;3.90;99.90
10905;DHT22;5505;51.450;9.254;2022-09-30T08:00:41;4.00;99.90
10905;DHT22;5505;51.450;9.254;2022-09-30T08:03:28;4.10;99.90
10905;DHT22;5505;51.450;9.254;2022-09-30T08:06:16;4.20;99.90
10905;DHT22;5505;51.450;9.254;2022-09-30T08:09:04;4.20;99.90
10905;DHT22;5505;51.450;9.254;2022-09-30T08:11:52;4.40;99.90
10905;DHT22;5505;51.450;9.254;2022-09-30T08:14:39;4.50;99.90
10905;DHT22;5505;51.450;9.254;2022-09-30T08:17:27;4.60;99.90
10905;DHT22;5505;51.450;9.254;2022-09-30T08:20:15;4.80;99.90
10905;DHT22;5505;51.450;9.254;2022-09-30T08:23:02;4.90;99.90
10905;DHT22;5505;51.450;9.254;2022-09-30T08:25:49;5.00;99.90
10905;DHT22;5505;51.450;9.254;2022-09-30T08:28:37;5.30;99.90
10905;DHT22;5505;51.450;9.254;2022-09-30T08:31:24;5.10;99.90
10905;DHT22;5505;51.450;9.254;2022-09-30T08:34:14;5.30;99.90
10905;DHT22;5505;51.450;9.254;2022-09-30T08:37:01;5.30;99.90
10905;DHT22;5505;51.450;9.254;2022-09-30T08:39:48;5.50;99.90
10905;DHT22;5505;51.450;9.254;2022-09-30T08:42:46;6.50;99.90
10905;DHT22;5505;51.450;9.254;2022-09-30T08:45:44;4.30;99.90
10905;DHT22;5505;51.450;9.254;2022-09-30T08:48:46;5.90;99.90
10905;DHT22;5505;51.450;9.254;2022-09-30T08:51:38;6.00;99.90
10905;DHT22;5505;51.450;9.254;2022-09-30T08:54:30;6.20;99.90
10905;DHT22;5505;51.450;9.254;2022-09-30T08:57:20;6.50;99.90
10905;DHT22;5505;51.450;9.254;2022-09-30T09:00:11;6.80;99.90
10905;DHT22;5505;51.450;9.254;2022-09-30T09:03:02;7.00;99.90
10905;DHT22;5505;51.450;9.254;2022-09-30T09:05:55;7.30;99.90
10905;DHT22;5505;51.450;9.254;2022-09-30T09:09:16;7.50;99.90
10905;DHT22;5505;51.450;9.254;2022-09-30T09:12:14;7.70;99.90
10905;DHT22;5505;51.450;9.254;2022-09-30T09:15:21;8.00;99.90
10905;DHT22;5505;51.450;9.254;2022-09-30T09:18:41;8.30;99.90
10905;DHT22;5505;51.450;9.254;2022-09-30T09:21:41;8.50;99.90
10905;DHT22;5505;51.450;9.254;2022-09-30T09:24:37;8.80;99.90
10905;DHT22;5505;51.450;9.254;2022-09-30T09:27:29;9.90;99.90
10905;DHT22;5505;51.450;9.254;2022-09-30T09:30:19;9.20;99.90
10905;DHT22;5505;51.450;9.254;2022-09-30T09:33:17;9.30;99.90
10905;DHT22;5505;51.450;9.254;2022-09-30T09:36:15;9.40;99.90
10905;DHT22;5505;51.450;9.254;2022-09-30T09:39:14;9.50;99.90
10905;DHT22;5505;51.450;9.254;2022-09-30T09:42:18;9.70;99.90
10905;DHT22;5505;51.450;9.254;2022-09-30T09:45:15;9.80;99.90
10905;DHT22;5505;51.450;9.254;2022-09-30T09:48:07;10.00;99.90
10905;DHT22;5505;51.450;9.254;2022-09-30T09:51:00;10.60;99.90
10905;DHT22;5505;51.450;9.254;2022-09-30T09:53:49;10.40;99.90
10905;DHT22;5505;51.450;9.254;2022-09-30T09:56:38;10.50;99.90
10905;DHT22;5505;51.450;9.254;2022-09-30T09:59:26;10.80;99.90
10905;DHT22;5505;51.450;9.254;2022-09-30T10:02:21;10.90;99.90
10905;DHT22;5505;51.450;9.254;2022-09-30T10:05:22;11.10;99.90
10905;DHT22;5505;51.450;9.254;2022-09-30T10:08:14;11.30;99.90
10905;DHT22;5505;51.450;9.254;2022-09-30T10:11:04;11.30;99.90
10905;DHT22;5505;51.450;9.254;2022-09-30T10:13:57;11.20;99.90
10905;DHT22;5505;51.450;9.254;2022-09-30T10:16:45;11.30;99.90
10905;DHT22;5505;51.450;9.254;2022-09-30T10:19:33;11.50;99.90
10905;DHT22;5505;51.450;9.254;2022-09-30T10:22:26;12.40;99.90
10905;DHT22;5505;51.450;9.254;2022-09-30T10:25:23;11.80;99.90
10905;DHT22;5505;51.450;9.254;2022-09-30T10:28:21;12.00;99.90
10905;DHT22;5505;51.450;9.254;2022-09-30T10:31:21;12.10;99.90
10905;DHT22;5505;51.450;9.254;2022-09-30T10:34:25;12.20;99.90
10905;DHT22;5505;51.450;9.254;2022-09-30T10:37:14;12.40;99.90
10905;DHT22;5505;51.450;9.254;2022-09-30T10:40:05;12.40;99.90
10905;DHT22;5505;51.450;9.254;2022-09-30T10:42:54;12.50;99.90
10905;DHT22;5505;51.450;9.254;2022-09-30T10:45:43;12.70;99.90
10905;DHT22;5505;51.450;9.254;2022-09-30T10:48:33;12.70;99.90
10905;DHT22;5505;51.450;9.254;2022-09-30T10:51:26;12.90;99.90
10905;DHT22;5505;51.450;9.254;2022-09-30T10:54:42;13.00;99.90
10905;DHT22;5505;51.450;9.254;2022-09-30T10:57:32;13.00;99.90
10905;DHT22;5505;51.450;9.254;2022-09-30T11:00:21;13.10;99.90
10905;DHT22;5505;51.450;9.254;2022-09-30T11:03:12;13.10;99.90
10905;DHT22;5505;51.450;9.254;2022-09-30T11:06:00;13.20;99.90
10905;DHT22;5505;51.450;9.254;2022-09-30T11:08:54;13.30;99.90
10905;DHT22;5505;51.450;9.254;2022-09-30T11:11:47;14.60;99.90
10905;DHT22;5505;51.450;9.254;2022-09-30T11:14:41;13.40;99.90
10905;DHT22;5505;51.450;9.254;2022-09-30T11:17:38;13.50;99.90
10905;DHT22;5505;51.450;9.254;2022-09-30T11:20:29;13.60;99.90
10905;DHT22;5505;51.450;9.254;2022-09-30T11:23:21;13.60;99.90
10905;DHT22;5505;51.450;9.254;2022-09-30T11:26:19;13.70;99.90
10905;DHT22;5505;51.450;9.254;2022-09-30T11:29:20;13.70;99.90
10905;DHT22;5505;51.450;9.254;2022-09-30T11:32:17;13.80;99.90
10905;DHT22;5505;51.450;9.254;2022-09-30T11:35:19;15.00;99.90
10905;DHT22;5505;51.450;9.254;2022-09-30T11:38:19;14.00;99.90
10905;DHT22;5505;51.450;9.254;2022-09-30T11:41:12;14.10;99.90
10905;DHT22;5505;51.450;9.254;2022-09-30T11:44:12;14.20;99.90
10905;DHT22;5505;51.450;9.254;2022-09-30T11:47:22;14.30;99.90
10905;DHT22;5505;51.450;9.254;2022-09-30T11:50:44;14.40;99.90
10905;DHT22;5505;51.450;9.254;2022-09-30T11:53:42;14.40;99.90
10905;DHT22;5505;51.450;9.254;2022-09-30T11:56:39;14.40;99.90
10905;DHT22;5505;51.450;9.254;2022-09-30T11:59:35;14.40;99.90
10905;DHT22;5505;51.450;9.254;2022-09-30T12:02:29;14.40;99.90
10905;DHT22;5505;51.450;9.254;2022-09-30T12:05:21;14.70;99.90
10905;DHT22;5505;51.450;9.254;2022-09-30T12:08:13;14.70;99.90
10905;DHT22;5505;51.450;9.254;2022-09-30T12:11:07;14.80;99.90
10905;DHT22;5505;51.450;9.254;2022-09-30T12:13:57;14.80;99.90
10905;DHT22;5505;51.450;9.254;2022-09-30T12:16:47;14.80;99.90
10905;DHT22;5505;51.450;9.254;2022-09-30T12:19:40;14.90;99.90
10905;DHT22;5505;51.450;9.254;2022-09-30T12:22:34;15.50;99.90
10905;DHT22;5505;51.450;9.254;2022-09-30T12:25:27;14.90;99.90
10905;DHT22;5505;51.450;9.254;2022-09-30T12:28:23;14.80;99.90
10905;DHT22;5505;51.450;9.254;2022-09-30T12:32:01;14.80;99.90
10905;DHT22;5505;51.450;9.254;2022-09-30T12:35:02;14.60;99.90
10905;DHT22;5505;51.450;9.254;2022-09-30T12:38:05;14.50;99.90
10905;DHT22;5505;51.450;9.254;2022-09-30T12:41:02;14.50;99.90
10905;DHT22;5505;51.450;9.254;2022-09-30T12:47:32;14.60;99.90
10905;DHT22;5505;51.450;9.254;2022-09-30T12:50:23;14.70;99.90
10905;DHT22;5505;51.450;9.254;2022-09-30T12:53:17;14.60;99.90
10905;DHT22;5505;51.450;9.254;2022-09-30T12:56:07;14.50;99.90
10905;DHT22;5505;51.450;9.254;2022-09-30T12:58:56;14.40;99.90
10905;DHT22;5505;51.450;9.254;2022-09-30T13:01:45;14.40;99.90
10905;DHT22;5505;51.450;9.254;2022-09-30T13:04:36;14.20;99.90
10905;DHT22;5505;51.450;9.254;2022-09-30T13:07:24;14.20;99.90
10905;DHT22;5505;51.450;9.254;2022-09-30T13:10:25;14.30;99.90
10905;DHT22;5505;51.450;9.254;2022-09-30T13:13:21;14.20;99.90
10905;DHT22;5505;51.450;9.254;2022-09-30T13:16:09;14.20;99.90
10905;DHT22;5505;51.450;9.254;2022-09-30T13:19:00;14.20;99.90
10905;DHT22;5505;51.450;9.254;2022-09-30T13:21:48;14.40;99.90
10905;DHT22;5505;51.450;9.254;2022-09-30T13:25:02;14.30;99.90
10905;DHT22;5505;51.450;9.254;2022-09-30T13:27:51;14.40;99.90
10905;DHT22;5505;51.450;9.254;2022-09-30T13:30:40;14.40;99.90
10905;DHT22;5505;51.450;9.254;2022-09-30T13:33:40;14.50;99.90
10905;DHT22;5505;51.450;9.254;2022-09-30T13:36:30;14.20;99.90
10905;DHT22;5505;51.450;9.254;2022-09-30T13:39:20;14.20;99.90
10905;DHT22;5505;51.450;9.254;2022-09-30T13:42:15;14.20;99.90
10905;DHT22;5505;51.450;9.254;2022-09-30T13:45:12;14.10;99.90
10905;DHT22;5505;51.450;9.254;2022-09-30T13:48:10;14.00;99.90
10905;DHT22;5505;51.450;9.254;2022-09-30T13:50:59;14.00;99.90
10905;DHT22;5505;51.450;9.254;2022-09-30T13:53:51;13.90;99.90
10905;DHT22;5505;51.450;9.254;2022-09-30T13:56:42;13.90;99.90
10905;DHT22;5505;51.450;9.254;2022-09-30T13:59:42;14.00;99.90
10905;DHT22;5505;51.450;9.254;2022-09-30T14:03:05;14.10;99.90
10905;DHT22;5505;51.450;9.254;2022-09-30T14:06:02;14.10;99.90
10905;DHT22;5505;51.450;9.254;2022-09-30T14:09:06;14.20;99.90
10905;DHT22;5505;51.450;9.254;2022-09-30T14:12:14;14.20;99.90
10905;DHT22;5505;51.450;9.254;2022-09-30T14:15:28;14.20;99.90
10905;DHT22;5505;51.450;9.254;2022-09-30T14:18:32;14.20;99.90
10905;DHT22;5505;51.450;9.254;2022-09-30T14:21:32;14.20;99.90
10905;DHT22;5505;51.450;9.254;2022-09-30T14:24:23;14.60;99.90
10905;DHT22;5505;51.450;9.254;2022-09-30T14:27:29;14.20;99.90
10905;DHT22;5505;51.450;9.254;2022-09-30T14:30:20;14.20;99.90
10905;DHT22;5505;51.450;9.254;2022-09-30T14:33:15;14.10;99.90
10905;DHT22;5505;51.450;9.254;2022-09-30T14:36:11;14.10;99.90
10905;DHT22;5505;51.450;9.254;2022-09-30T14:39:00;14.10;99.90
10905;DHT22;5505;51.450;9.254;2022-09-30T14:41:51;14.00;99.90
10905;DHT22;5505;51.450;9.254;2022-09-30T14:44:41;14.00;99.90
10905;DHT22;5505;51.450;9.254;2022-09-30T14:47:28;12.20;99.90
10905;DHT22;5505;51.450;9.254;2022-09-30T14:50:18;14.00;99.90
10905;DHT22;5505;51.450;9.254;2022-09-30T14:53:23;14.00;99.90
10905;DHT22;5505;51.450;9.254;2022-09-30T14:56:18;14.00;99.90
10905;DHT22;5505;51.450;9.254;2022-09-30T14:59:15;14.10;99.90
10905;DHT22;5505;51.450;9.254;2022-09-30T15:02:13;14.20;99.90
10905;DHT22;5505;51.450;9.254;2022-09-30T15:05:03;14.40;99.90
10905;DHT22;5505;51.450;9.254;2022-09-30T15:07:53;14.60;99.90
10905;DHT22;5505;51.450;9.254;2022-09-30T15:10:45;14.70;99.90
10905;DHT22;5505;51.450;9.254;2022-09-30T15:13:33;14.70;99.90
10905;DHT22;5505;51.450;9.254;2022-09-30T15:16:26;14.60;99.90
10905;DHT22;5505;51.450;9.254;2022-09-30T15:19:20;14.90;99.90
10905;DHT22;5505;51.450;9.254;2022-09-30T15:22:09;14.40;99.90
10905;DHT22;5505;51.450;9.254;2022-09-30T15:24:58;14.40;99.90
10905;DHT22;5505;51.450;9.254;2022-09-30T15:27:45;14.30;99.90
10905;DHT22;5505;51.450;9.254;2022-09-30T15:30:34;14.30;99.90
10905;DHT22;5505;51.450;9.254;2022-09-30T15:33:23;14.00;99.90
10905;DHT22;5505;51.450;9.254;2022-09-30T15:36:15;14.00;99.90
10905;DHT22;5505;51.450;9.254;2022-09-30T15:39:04;14.00;99.90
10905;DHT22;5505;51.450;9.254;2022-09-30T15:41:52;13.90;99.90
10905;DHT22;5505;51.450;9.254;2022-09-30T15:44:39;13.90;99.90
10905;DHT22;5505;51.450;9.254;2022-09-30T15:47:27;13.80;99.90
10905;DHT22;5505;51.450;9.254;2022-09-30T15:50:36;13.80;99.90
10905;DHT22;5505;51.450;9.254;2022-09-30T15:53:28;13.80;99.90
10905;DHT22;5505;51.450;9.254;2022-09-30T15:56:22;13.80;99.90
10905;DHT22;5505;51.450;9.254;2022-09-30T15:59:11;14.00;99.90
10905;DHT22;5505;51.450;9.254;2022-09-30T16:02:00;13.60;99.90
10905;DHT22;5505;51.450;9.254;2022-09-30T16:04:49;13.60;99.90
10905;DHT22;5505;51.450;9.254;2022-09-30T16:07:41;13.60;99.90
10905;DHT22;5505;51.450;9.254;2022-09-30T16:10:29;13.60;99.90
10905;DHT22;5505;51.450;9.254;2022-09-30T16:13:16;13.50;99.90
10905;DHT22;5505;51.450;9.254;2022-09-30T16:16:14;13.50;99.90
10905;DHT22;5505;51.450;9.254;2022-09-30T16:19:04;13.40;99.90
10905;DHT22;5505;51.450;9.254;2022-09-30T16:21:52;13.30;99.90
10905;DHT22;5505;51.450;9.254;2022-09-30T16:24:45;14.70;99.90
10905;DHT22;5505;51.450;9.254;2022-09-30T16:27:35;13.20;99.90
10905;DHT22;5505;51.450;9.254;2022-09-30T16:30:22;13.00;99.90
10905;DHT22;5505;51.450;9.254;2022-09-30T16:33:11;13.00;99.90
10905;DHT22;5505;51.450;9.254;2022-09-30T16:35:59;12.90;99.90
10905;DHT22;5505;51.450;9.254;2022-09-30T16:38:46;13.00;99.90
10905;DHT22;5505;51.450;9.254;2022-09-30T16:41:34;12.90;99.90
10905;DHT22;5505;51.450;9.254;2022-09-30T16:44:22;12.80;99.90
10905;DHT22;5505;51.450;9.254;2022-09-30T16:47:12;12.70;99.90
10905;DHT22;5505;51.450;9.254;2022-09-30T16:50:00;12.70;99.90
10905;DHT22;5505;51.450;9.254;2022-09-30T16:52:47;12.60;99.90
10905;DHT22;5505;51.450;9.254;2022-09-30T16:55:34;12.60;99.90
10905;DHT22;5505;51.450;9.254;2022-09-30T16:58:21;12.50;99.90
10905;DHT22;5505;51.450;9.254;2022-09-30T17:01:15;12.40;99.90
10905;DHT22;5505;51.450;9.254;2022-09-30T17:04:04;12.30;99.90
10905;DHT22;5505;51.450;9.254;2022-09-30T17:06:52;12.90;99.90
10905;DHT22;5505;51.450;9.254;2022-09-30T17:09:41;12.10;99.90
10905;DHT22;5505;51.450;9.254;2022-09-30T17:12:28;12.00;99.90
10905;DHT22;5505;51.450;9.254;2022-09-30T17:15:16;12.00;99.90
10905;DHT22;5505;51.450;9.254;2022-09-30T17:18:06;11.90;99.90
10905;DHT22;5505;51.450;9.254;2022-09-30T17:20:54;12.00;99.90
10905;DHT22;5505;51.450;9.254;2022-09-30T17:23:41;12.00;99.90
10905;DHT22;5505;51.450;9.254;2022-09-30T17:26:28;11.90;99.90
10905;DHT22;5505;51.450;9.254;2022-09-30T17:29:15;12.00;99.90
10905;DHT22;5505;51.450;9.254;2022-09-30T17:32:05;11.90;99.90
10905;DHT22;5505;51.450;9.254;2022-09-30T17:34:53;11.80;99.90
10905;DHT22;5505;51.450;9.254;2022-09-30T17:37:41;11.80;99.90
10905;DHT22;5505;51.450;9.254;2022-09-30T17:40:28;11.70;99.90
10905;DHT22;5505;51.450;9.254;2022-09-30T17:43:33;11.70;99.90
10905;DHT22;5505;51.450;9.254;2022-09-30T17:46:20;11.70;99.90
10905;DHT22;5505;51.450;9.254;2022-09-30T17:49:08;11.60;99.90
10905;DHT22;5505;51.450;9.254;2022-09-30T17:51:57;11.60;99.90
10905;DHT22;5505;51.450;9.254;2022-09-30T17:54:44;11.50;99.90
10905;DHT22;5505;51.450;9.254;2022-09-30T17:57:34;11.60;99.90
10905;DHT22;5505;51.450;9.254;2022-09-30T18:00:26;11.50;99.90
10905;DHT22;5505;51.450;9.254;2022-09-30T18:03:13;11.40;99.90
10905;DHT22;5505;51.450;9.254;2022-09-30T18:06:01;12.20;99.90
10905;DHT22;5505;51.450;9.254;2022-09-30T18:08:50;11.30;99.90
10905;DHT22;5505;51.450;9.254;2022-09-30T18:11:37;11.30;99.90
10905;DHT22;5505;51.450;9.254;2022-09-30T18:14:24;11.20;99.90
10905;DHT22;5505;51.450;9.254;2022-09-30T18:17:15;11.10;99.90
10905;DHT22;5505;51.450;9.254;2022-09-30T18:20:02;11.10;99.90
10905;DHT22;5505;51.450;9.254;2022-09-30T18:22:50;11.00;99.90
10905;DHT22;5505;51.450;9.254;2022-09-30T18:25:38;12.20;99.90
10905;DHT22;5505;51.450;9.254;2022-09-30T18:28:28;11.10;99.90
10905;DHT22;5505;51.450;9.254;2022-09-30T18:31:15;11.10;99.90
10905;DHT22;5505;51.450;9.254;2022-09-30T18:34:13;11.10;99.90
10905;DHT22;5505;51.450;9.254;2022-09-30T18:37:00;11.00;99.90
10905;DHT22;5505;51.450;9.254;2022-09-30T18:39:49;11.00;99.90